Time;durP1;ratioP1;P1;durP2;ratioP2;P2;SDS_P1;SDS_P2;PMS_P1;PMS_P2;Temp;Humidity;BMP_temperature;BMP_pressure;BME280_temperature;BME280_humidity;BME280_pressure;Samples;Min_cycle;Max_cycle;Signal;HPM_P1;HPM_P2
2023/09/09 00:02:02;;;;;;;0.00;0.00;;;17.80;54.90;;;;;;5051786;28;20656;-59
2023/09/09 00:04:33;;;;;;;0.10;0.10;;;17.90;55.00;;;;;;5051946;28;20507;-58
2023/09/09 00:07:03;;;;;;;0.10;0.10;;;17.90;55.00;;;;;;5052419;28;20192;-59
2023/09/09 00:09:36;;;;;;;0.10;0.10;;;18.00;55.10;;;;;;5052037;28;20211;-58
2023/09/09 00:12:07;;;;;;;0.10;0.10;;;18.00;55.20;;;;;;5051974;28;20659;-59
2023/09/09 00:14:38;;;;;;;0.10;0.10;;;18.00;55.10;;;;;;5051910;28;20195;-58
2023/09/09 00:17:08;;;;;;;0.00;0.00;;;18.10;55.20;;;;;;5052070;28;20252;-58
2023/09/09 00:19:39;;;;;;;0.10;0.10;;;18.10;55.20;;;;;;5052027;28;20215;-59
2023/09/09 00:22:10;;;;;;;0.10;0.10;;;18.10;55.10;;;;;;5051093;28;20195;-59
2023/09/09 00:24:42;;;;;;;0.10;0.10;;;18.20;54.90;;;;;;5051391;28;20196;-59
2023/09/09 00:27:13;;;;;;;0.10;0.10;;;18.20;54.90;;;;;;5055857;28;20190;-58
2023/09/09 00:29:43;;;;;;;0.00;0.00;;;18.20;54.90;;;;;;5052167;28;20648;-58
2023/09/09 00:32:14;;;;;;;0.03;0.03;;;18.30;55.00;;;;;;5050860;28;20211;-59
2023/09/09 00:34:45;;;;;;;0.10;0.10;;;18.30;55.30;;;;;;5052345;28;20855;-59
2023/09/09 00:37:15;;;;;;;0.10;0.10;;;18.30;55.30;;;;;;5051077;28;20226;-59
2023/09/09 00:39:48;;;;;;;0.00;0.00;;;18.40;55.30;;;;;;5051432;28;20219;-59
2023/09/09 00:42:18;;;;;;;0.10;0.10;;;18.50;55.40;;;;;;5052273;28;20196;-59
2023/09/09 00:44:48;;;;;;;0.00;0.00;;;18.50;55.40;;;;;;5058604;28;20195;-58
2023/09/09 00:47:19;;;;;;;0.10;0.10;;;18.50;55.40;;;;;;5051363;28;20256;-59
2023/09/09 00:49:50;;;;;;;0.00;0.00;;;18.60;55.50;;;;;;5051322;28;20801;-59
2023/09/09 00:52:20;;;;;;;0.10;0.10;;;18.60;55.50;;;;;;5051045;28;20191;-57
2023/09/09 00:54:53;;;;;;;0.00;0.00;;;18.70;55.80;;;;;;5051205;28;20252;-59
2023/09/09 00:57:24;;;;;;;0.00;0.00;;;18.70;57.70;;;;;;5051220;28;20227;-59
2023/09/09 00:59:54;;;;;;;0.10;0.10;;;18.80;58.20;;;;;;5050489;28;20219;-59
2023/09/09 01:02:25;;;;;;;0.10;0.10;;;18.90;58.10;;;;;;5050979;28;20210;-59
2023/09/09 01:04:59;;;;;;;0.00;0.00;;;19.00;58.10;;;;;;5051047;28;20203;-60
2023/09/09 01:07:30;;;;;;;0.00;0.00;;;19.10;57.90;;;;;;5050569;28;20203;-57
2023/09/09 01:10:02;;;;;;;0.00;0.00;;;19.20;57.70;;;;;;5048871;28;20339;-57
2023/09/09 01:12:33;;;;;;;0.00;0.00;;;19.20;57.70;;;;;;5051178;28;20192;-57
2023/09/09 01:15:04;;;;;;;0.10;0.10;;;19.30;57.70;;;;;;5051408;28;20192;-57
2023/09/09 01:17:36;;;;;;;0.08;0.08;;;19.40;57.40;;;;;;5051733;28;20262;-58
2023/09/09 01:20:14;;;;;;;0.00;0.00;;;19.40;57.20;;;;;;5051734;28;20242;-57
2023/09/09 01:22:48;;;;;;;0.00;0.00;;;19.50;57.10;;;;;;5051086;28;20256;-57
2023/09/09 01:25:19;;;;;;;0.00;0.00;;;19.50;56.90;;;;;;5051175;28;20265;-57
2023/09/09 01:27:49;;;;;;;0.00;0.00;;;19.60;56.90;;;;;;5051474;28;20561;-57
2023/09/09 01:30:20;;;;;;;0.10;0.10;;;19.60;56.80;;;;;;5051188;28;20219;-58
2023/09/09 01:32:51;;;;;;;0.10;0.10;;;19.60;56.80;;;;;;5051151;28;20694;-57
2023/09/09 01:35:21;;;;;;;0.03;0.03;;;19.60;56.60;;;;;;5051240;28;20195;-58
2023/09/09 01:37:54;;;;;;;0.00;0.00;;;19.70;56.60;;;;;;5050988;28;20636;-58
2023/09/09 01:40:25;;;;;;;0.10;0.10;;;19.60;56.50;;;;;;5062226;28;20321;-57
2023/09/09 01:42:55;;;;;;;0.03;0.03;;;19.70;56.60;;;;;;5071359;28;20205;-57
2023/09/09 01:45:26;;;;;;;0.10;0.10;;;19.70;56.60;;;;;;5071807;28;20198;-57
2023/09/09 01:47:57;;;;;;;0.10;0.10;;;19.70;56.50;;;;;;5069816;28;20672;-57
2023/09/09 01:50:27;;;;;;;0.05;0.05;;;19.80;56.50;;;;;;5054998;28;20578;-57
2023/09/09 01:53:00;;;;;;;0.10;0.10;;;19.80;56.40;;;;;;5054535;28;20210;-57
2023/09/09 01:55:31;;;;;;;0.10;0.10;;;19.90;56.40;;;;;;5054755;28;20566;-59
2023/09/09 01:58:01;;;;;;;0.00;0.00;;;19.90;56.30;;;;;;5054873;28;20230;-57
2023/09/09 02:00:32;;;;;;;0.00;0.00;;;19.90;56.20;;;;;;5054889;28;20212;-57
2023/09/09 02:03:03;;;;;;;0.00;0.00;;;19.90;56.20;;;;;;5055316;28;20210;-57
2023/09/09 02:05:33;;;;;;;0.00;0.00;;;20.00;56.20;;;;;;5054887;28;20195;-57
2023/09/09 02:08:06;;;;;;;0.00;0.00;;;20.00;56.10;;;;;;5054497;28;20200;-57
2023/09/09 02:10:37;;;;;;;0.13;0.13;;;20.00;56.20;;;;;;5054691;28;20226;-58
2023/09/09 02:13:07;;;;;;;0.00;0.00;;;20.10;56.20;;;;;;5054689;28;20206;-58
2023/09/09 02:15:38;;;;;;;0.08;0.08;;;20.10;56.10;;;;;;5054679;28;20659;-57
2023/09/09 02:18:09;;;;;;;0.10;0.10;;;20.10;56.10;;;;;;5057046;28;20219;-58
2023/09/09 02:20:39;;;;;;;0.05;0.05;;;20.10;56.00;;;;;;5054477;28;20215;-57
2023/09/09 02:23:12;;;;;;;0.10;0.10;;;20.20;56.10;;;;;;5054154;28;20557;-57
2023/09/09 02:25:43;;;;;;;0.00;0.00;;;20.20;55.90;;;;;;5054479;28;20677;-57
2023/09/09 02:28:13;;;;;;;0.08;0.08;;;20.20;55.80;;;;;;5057113;28;20206;-57
2023/09/09 02:30:47;;;;;;;0.03;0.03;;;20.30;55.60;;;;;;5054493;28;20219;-57
2023/09/09 02:33:18;;;;;;;0.00;0.00;;;20.30;55.50;;;;;;5054437;28;20541;-58
2023/09/09 02:35:48;;;;;;;0.00;0.00;;;20.30;55.50;;;;;;5068861;28;20556;-57
2023/09/09 02:38:21;;;;;;;0.10;0.10;;;20.30;55.50;;;;;;5074325;28;20232;-58
2023/09/09 02:40:51;;;;;;;0.05;0.05;;;20.30;55.50;;;;;;5074100;28;20224;-57
2023/09/09 02:43:22;;;;;;;0.10;0.10;;;20.40;55.60;;;;;;5074483;28;20654;-58
2023/09/09 02:45:53;;;;;;;0.10;0.10;;;20.40;55.60;;;;;;5074200;28;20225;-57
2023/09/09 02:48:23;;;;;;;0.00;0.00;;;20.50;55.50;;;;;;5074298;28;20265;-57
2023/09/09 02:50:54;;;;;;;0.00;0.00;;;20.50;55.50;;;;;;5073822;28;20573;-58
2023/09/09 02:53:26;;;;;;;0.00;0.00;;;20.60;55.50;;;;;;5073899;28;20199;-58
2023/09/09 02:55:57;;;;;;;0.10;0.10;;;20.60;55.50;;;;;;5074159;28;20583;-58
2023/09/09 02:58:28;;;;;;;0.00;0.00;;;20.60;55.50;;;;;;5073300;28;20750;-57
2023/09/09 03:01:06;;;;;;;0.00;0.00;;;20.60;55.50;;;;;;5074064;28;20219;-58
2023/09/09 03:03:37;;;;;;;0.00;0.00;;;20.60;55.50;;;;;;5070147;28;20222;-57
2023/09/09 03:06:12;;;;;;;0.00;0.00;;;20.70;55.40;;;;;;5053677;28;20284;-58
2023/09/09 03:08:44;;;;;;;0.08;0.08;;;20.70;55.40;;;;;;5053469;28;20199;-58
2023/09/09 03:11:15;;;;;;;0.00;0.00;;;20.70;55.40;;;;;;5053785;28;20199;-59
2023/09/09 03:13:47;;;;;;;0.00;0.00;;;20.70;55.30;;;;;;5053735;28;20200;-58
2023/09/09 03:16:17;;;;;;;0.00;0.00;;;20.80;55.40;;;;;;5053152;28;20199;-58
2023/09/09 03:18:48;;;;;;;0.05;0.05;;;20.80;55.30;;;;;;5053032;28;20235;-57
2023/09/09 03:21:18;;;;;;;0.00;0.00;;;20.90;55.30;;;;;;5052840;28;20198;-58
2023/09/09 03:23:51;;;;;;;0.10;0.10;;;20.90;55.20;;;;;;5053069;28;20199;-58
2023/09/09 03:26:22;;;;;;;0.00;0.00;;;20.90;55.20;;;;;;5053650;28;20202;-58
2023/09/09 03:28:53;;;;;;;0.00;0.00;;;21.00;55.20;;;;;;5053487;28;20192;-57
2023/09/09 03:31:23;;;;;;;0.10;0.10;;;21.00;55.10;;;;;;5053220;28;20210;-57
2023/09/09 03:33:54;;;;;;;0.00;0.00;;;21.10;55.00;;;;;;5053128;28;20249;-57
2023/09/09 03:36:25;;;;;;;0.00;0.00;;;21.10;55.00;;;;;;5053185;28;20590;-57
2023/09/09 03:39:01;;;;;;;0.00;0.00;;;21.10;54.80;;;;;;5053321;28;20231;-57
2023/09/09 03:41:32;;;;;;;0.00;0.00;;;21.10;54.80;;;;;;5052547;28;20226;-57
2023/09/09 03:44:03;;;;;;;0.10;0.10;;;21.20;54.80;;;;;;5068700;28;20191;-58
2023/09/09 03:46:34;;;;;;;0.03;0.03;;;21.20;54.80;;;;;;5073055;28;20651;-57
2023/09/09 03:49:05;;;;;;;0.00;0.00;;;21.20;54.70;;;;;;5072914;28;20223;-57
2023/09/09 03:51:35;;;;;;;0.00;0.00;;;21.30;54.70;;;;;;5073225;28;20198;-58
2023/09/09 03:54:08;;;;;;;0.00;0.00;;;21.30;54.70;;;;;;5072822;28;20216;-57
2023/09/09 03:56:39;;;;;;;0.10;0.10;;;21.30;54.50;;;;;;5072693;28;20595;-58
2023/09/09 03:59:11;;;;;;;0.00;0.00;;;21.40;54.40;;;;;;5072828;28;20227;-58
2023/09/09 04:01:41;;;;;;;0.00;0.00;;;21.30;54.30;;;;;;5072558;28;20202;-58
2023/09/09 04:04:12;;;;;;;0.08;0.08;;;21.40;54.30;;;;;;5071079;28;20199;-58
2023/09/09 04:06:42;;;;;;;0.10;0.10;;;21.40;54.30;;;;;;5052094;28;20196;-58
2023/09/09 04:09:21;;;;;;;0.00;0.00;;;21.40;54.10;;;;;;5050977;28;20695;-57
2023/09/09 04:11:52;;;;;;;0.00;0.00;;;21.50;54.70;;;;;;5055372;28;20193;-58
2023/09/09 04:14:23;;;;;;;0.03;0.03;;;21.50;54.10;;;;;;5052682;28;20587;-57
2023/09/09 04:16:53;;;;;;;0.03;0.03;;;21.50;54.00;;;;;;5052703;28;20698;-57
2023/09/09 04:19:24;;;;;;;0.00;0.00;;;21.60;54.10;;;;;;5052335;28;20238;-58
2023/09/09 04:21:55;;;;;;;0.10;0.10;;;21.60;54.10;;;;;;5052193;28;20258;-58
2023/09/09 04:24:27;;;;;;;0.10;0.10;;;21.60;54.00;;;;;;5053494;28;20196;-58
2023/09/09 04:26:58;;;;;;;0.00;0.00;;;21.60;54.10;;;;;;5054051;28;20196;-58
2023/09/09 04:29:28;;;;;;;0.00;0.00;;;21.70;53.90;;;;;;5052345;28;20225;-58
2023/09/09 04:32:00;;;;;;;0.00;0.00;;;21.70;53.80;;;;;;5052168;28;20204;-57
2023/09/09 04:34:31;;;;;;;0.00;0.00;;;21.70;53.80;;;;;;5052566;28;20286;-57
2023/09/09 04:37:02;;;;;;;0.10;0.10;;;21.70;53.70;;;;;;5060521;28;20650;-59
2023/09/09 04:39:34;;;;;;;0.10;0.10;;;21.80;53.60;;;;;;5071480;28;20230;-57
2023/09/09 04:42:05;;;;;;;0.00;0.00;;;21.80;53.70;;;;;;5071851;28;20757;-58
2023/09/09 04:44:35;;;;;;;0.00;0.00;;;21.80;54.10;;;;;;5071796;28;20198;-57
2023/09/09 04:47:06;;;;;;;0.10;0.10;;;21.80;54.00;;;;;;5072195;28;20202;-57
2023/09/09 04:49:37;;;;;;;0.10;0.10;;;22.00;53.80;;;;;;5071784;28;20222;-58
2023/09/09 04:52:08;;;;;;;0.10;0.10;;;22.00;53.60;;;;;;5072179;28;20190;-57
2023/09/09 04:54:40;;;;;;;0.00;0.00;;;22.10;53.50;;;;;;5071973;28;20199;-57
2023/09/09 04:57:11;;;;;;;0.10;0.10;;;22.10;53.50;;;;;;5067920;28;20278;-57
2023/09/09 04:59:41;;;;;;;0.00;0.00;;;22.10;53.50;;;;;;5051681;28;20227;-57
2023/09/09 05:02:13;;;;;;;0.10;0.10;;;22.10;53.50;;;;;;5050792;28;20219;-58
2023/09/09 05:04:43;;;;;;;0.10;0.10;;;22.10;53.40;;;;;;5051104;28;20199;-57
2023/09/09 05:07:14;;;;;;;0.00;0.00;;;22.10;53.50;;;;;;5050298;28;20203;-57
2023/09/09 05:09:47;;;;;;;0.10;0.10;;;22.10;53.50;;;;;;5050193;28;20220;-57
2023/09/09 05:12:18;;;;;;;0.00;0.00;;;22.20;53.60;;;;;;5051490;28;20682;-58
2023/09/09 05:14:48;;;;;;;0.00;0.00;;;22.20;53.60;;;;;;5050988;28;20272;-57
2023/09/09 05:17:19;;;;;;;0.10;0.10;;;22.10;53.60;;;;;;5051220;28;20211;-57
2023/09/09 05:19:49;;;;;;;0.10;0.10;;;22.20;53.60;;;;;;5050111;28;20219;-57
2023/09/09 05:22:20;;;;;;;0.00;0.00;;;22.20;53.60;;;;;;5049970;28;20199;-57
2023/09/09 05:24:53;;;;;;;0.00;0.00;;;22.20;53.60;;;;;;5050165;28;20191;-57
2023/09/09 05:27:23;;;;;;;0.00;0.00;;;22.20;53.80;;;;;;5050857;28;20200;-57
2023/09/09 05:29:54;;;;;;;0.00;0.00;;;22.20;53.60;;;;;;5050857;28;20279;-58
2023/09/09 05:32:24;;;;;;;0.00;0.00;;;22.20;54.10;;;;;;5050909;28;20203;-58
2023/09/09 05:34:55;;;;;;;0.10;0.10;;;22.20;53.40;;;;;;5051111;28;20558;-58
2023/09/09 05:37:26;;;;;;;0.10;0.10;;;22.20;53.30;;;;;;5050291;28;20678;-58
2023/09/09 05:40:00;;;;;;;0.03;0.03;;;22.20;53.30;;;;;;5051258;28;20262;-57
2023/09/09 05:42:31;;;;;;;0.00;0.00;;;22.20;53.20;;;;;;5050430;28;20314;-57
2023/09/09 05:45:02;;;;;;;0.00;0.00;;;22.20;53.30;;;;;;5054302;28;20199;-58
2023/09/09 05:47:33;;;;;;;0.00;0.00;;;22.20;53.50;;;;;;5050110;28;20198;-57
2023/09/09 05:50:05;;;;;;;0.10;0.10;;;22.20;53.40;;;;;;5050071;28;20366;-57
2023/09/09 05:52:36;;;;;;;0.00;0.00;;;22.20;53.30;;;;;;5050518;28;20226;-58
2023/09/09 05:55:09;;;;;;;0.00;0.00;;;22.10;53.30;;;;;;5057117;28;20198;-57
2023/09/09 05:57:40;;;;;;;0.08;0.08;;;22.20;53.30;;;;;;5034957;28;20231;-57
2023/09/09 06:00:11;;;;;;;0.08;0.08;;;22.10;53.20;;;;;;5041236;28;20227;-57
2023/09/09 06:02:42;;;;;;;0.08;0.08;;;22.10;53.20;;;;;;5050124;28;20202;-57
2023/09/09 06:05:13;;;;;;;0.00;0.00;;;22.10;53.10;;;;;;5049251;28;20195;-57
2023/09/09 06:07:44;;;;;;;0.00;0.00;;;22.10;53.00;;;;;;5049812;28;20685;-57
2023/09/09 06:10:17;;;;;;;0.00;0.00;;;22.10;52.90;;;;;;5050220;28;20611;-57
2023/09/09 06:12:47;;;;;;;0.00;0.00;;;22.10;52.80;;;;;;5053486;28;20196;-57
2023/09/09 06:15:18;;;;;;;0.00;0.00;;;22.10;52.80;;;;;;5049730;28;20223;-57
2023/09/09 06:17:49;;;;;;;0.00;0.00;;;22.10;52.80;;;;;;5050329;28;20682;-57
2023/09/09 06:20:20;;;;;;;0.10;0.10;;;22.00;52.70;;;;;;5049838;28;20219;-58
2023/09/09 06:22:50;;;;;;;0.00;0.00;;;22.00;52.70;;;;;;5049564;28;20195;-58
2023/09/09 06:25:23;;;;;;;0.00;0.00;;;22.00;52.70;;;;;;5050569;28;20274;-58
2023/09/09 06:27:54;;;;;;;0.00;0.00;;;22.00;53.30;;;;;;5050299;28;20202;-57
2023/09/09 06:30:24;;;;;;;0.00;0.00;;;22.00;52.80;;;;;;5050765;28;20216;-58
2023/09/09 06:32:55;;;;;;;0.00;0.00;;;21.90;52.70;;;;;;5050719;28;20533;-58
2023/09/09 06:35:26;;;;;;;0.00;0.00;;;21.90;52.70;;;;;;5054182;28;20191;-57
2023/09/09 06:37:56;;;;;;;0.00;0.00;;;21.90;52.70;;;;;;5053662;28;20562;-57
2023/09/09 06:40:29;;;;;;;0.00;0.00;;;21.90;52.70;;;;;;5054031;28;20228;-58
2023/09/09 06:43:00;;;;;;;0.10;0.10;;;21.90;52.70;;;;;;5053206;28;20278;-57
2023/09/09 06:45:30;;;;;;;0.00;0.00;;;21.90;52.60;;;;;;5053600;28;20204;-57
2023/09/09 06:48:03;;;;;;;0.00;0.00;;;21.80;52.50;;;;;;5071950;28;20194;-58
2023/09/09 06:50:33;;;;;;;0.10;0.10;;;21.80;52.60;;;;;;5062446;28;20207;-57
2023/09/09 06:53:04;;;;;;;0.10;0.10;;;21.80;52.60;;;;;;5052589;28;20196;-58
2023/09/09 06:55:37;;;;;;;0.05;0.05;;;21.70;52.50;;;;;;5053013;28;20223;-57
2023/09/09 06:58:07;;;;;;;0.00;0.00;;;21.70;52.50;;;;;;5034144;28;20200;-58
2023/09/09 07:00:38;;;;;;;0.00;0.00;;;21.70;52.50;;;;;;5041723;28;20214;-57
2023/09/09 07:03:09;;;;;;;0.10;0.10;;;21.70;52.60;;;;;;5053283;28;20211;-57
2023/09/09 07:05:39;;;;;;;0.10;0.10;;;21.60;52.60;;;;;;5053572;28;20202;-57
2023/09/09 07:08:10;;;;;;;0.00;0.00;;;21.60;52.60;;;;;;5052869;28;20222;-57
2023/09/09 07:10:50;;;;;;;0.00;0.00;;;21.60;52.60;;;;;;5053657;28;20212;-57
2023/09/09 07:13:21;;;;;;;0.00;0.00;;;21.60;52.70;;;;;;5052177;28;20202;-57
2023/09/09 07:15:54;;;;;;;0.00;0.00;;;21.60;52.70;;;;;;5053161;28;20441;-57
2023/09/09 07:18:25;;;;;;;0.00;0.00;;;21.60;52.70;;;;;;5052819;28;20200;-57
2023/09/09 07:20:58;;;;;;;0.10;0.10;;;21.50;52.60;;;;;;5053194;28;20223;-57
2023/09/09 07:23:29;;;;;;;0.00;0.00;;;21.50;52.60;;;;;;5053786;28;20203;-57
2023/09/09 07:26:02;;;;;;;0.00;0.00;;;21.50;52.50;;;;;;5053604;28;20209;-57
2023/09/09 07:28:33;;;;;;;0.10;0.10;;;21.50;52.60;;;;;;5053815;28;20286;-57
2023/09/09 07:31:05;;;;;;;0.00;0.00;;;21.40;52.50;;;;;;5060966;28;20191;-57
2023/09/09 07:33:36;;;;;;;0.00;0.00;;;21.40;52.50;;;;;;5072983;28;20214;-57
2023/09/09 07:36:06;;;;;;;0.10;0.10;;;21.40;52.50;;;;;;5056161;28;20651;-57
2023/09/09 07:38:37;;;;;;;0.10;0.10;;;21.40;52.50;;;;;;5053105;28;20196;-57
2023/09/09 07:41:10;;;;;;;0.10;0.10;;;21.40;52.50;;;;;;5053301;28;20246;-57
2023/09/09 07:43:40;;;;;;;0.00;0.00;;;21.40;52.60;;;;;;5053081;28;20214;-57
2023/09/09 07:46:11;;;;;;;0.00;0.00;;;21.30;52.60;;;;;;5052750;28;20617;-57
2023/09/09 07:48:42;;;;;;;0.10;0.10;;;21.30;52.60;;;;;;5052321;28;20198;-57
2023/09/09 07:51:14;;;;;;;0.10;0.10;;;21.30;52.60;;;;;;5053243;28;20226;-56
2023/09/09 07:53:44;;;;;;;0.00;0.00;;;21.30;52.60;;;;;;5052926;28;20195;-57
2023/09/09 07:56:17;;;;;;;0.00;0.00;;;21.30;52.60;;;;;;5052208;28;20200;-57
2023/09/09 07:58:47;;;;;;;0.00;0.00;;;21.30;52.60;;;;;;5052557;28;20234;-57
2023/09/09 08:01:18;;;;;;;0.00;0.00;;;21.30;52.60;;;;;;5052511;28;20196;-57
2023/09/09 08:03:49;;;;;;;0.00;0.00;;;21.20;52.60;;;;;;5052083;28;20195;-57
2023/09/09 08:06:19;;;;;;;0.00;0.00;;;21.20;52.60;;;;;;5052470;28;20655;-57
2023/09/09 08:08:50;;;;;;;0.00;0.00;;;21.20;52.50;;;;;;5052444;28;20210;-58
2023/09/09 08:11:22;;;;;;;0.10;0.10;;;21.20;52.60;;;;;;5052331;28;20210;-57
2023/09/09 08:13:53;;;;;;;0.00;0.00;;;21.20;52.60;;;;;;5054123;28;20247;-57
2023/09/09 08:16:24;;;;;;;0.10;0.10;;;21.10;52.50;;;;;;5032126;28;20200;-57
2023/09/09 08:18:54;;;;;;;0.10;0.10;;;21.10;52.50;;;;;;5031633;28;20247;-57
2023/09/09 08:21:25;;;;;;;0.00;0.00;;;21.10;52.50;;;;;;5032397;28;20200;-57
2023/09/09 08:23:55;;;;;;;0.00;0.00;;;21.10;52.50;;;;;;5032522;28;20196;-54
2023/09/09 08:26:28;;;;;;;0.00;0.00;;;21.10;52.50;;;;;;5032461;28;20200;-57
2023/09/09 08:28:59;;;;;;;0.00;0.00;;;21.00;52.60;;;;;;5032639;28;20228;-57
2023/09/09 08:31:29;;;;;;;0.00;0.00;;;21.00;52.60;;;;;;5031939;28;20203;-57
2023/09/09 08:34:02;;;;;;;0.00;0.00;;;21.00;52.60;;;;;;5052744;28;20191;-57
2023/09/09 08:36:33;;;;;;;0.00;0.00;;;21.00;52.70;;;;;;5032585;28;20199;-57
2023/09/09 08:39:03;;;;;;;0.10;0.10;;;21.00;52.60;;;;;;5031763;28;20589;-56
2023/09/09 08:41:54;;;;;;;0.05;0.05;;;21.00;52.60;;;;;;5032108;28;20246;-57
2023/09/09 08:44:38;;;;;;;0.00;0.00;;;21.00;52.60;;;;;;5031888;28;20204;-58
2023/09/09 08:47:09;;;;;;;0.00;0.00;;;21.00;52.50;;;;;;5055773;28;20194;-57
2023/09/09 08:49:44;;;;;;;0.03;0.03;;;20.90;52.50;;;;;;5072064;28;20214;-57
2023/09/09 08:52:20;;;;;;;0.00;0.00;;;20.90;52.50;;;;;;5071812;28;20194;-57
2023/09/09 08:54:51;;;;;;;0.00;0.00;;;20.90;52.50;;;;;;5071234;28;20187;-55
2023/09/09 08:57:25;;;;;;;0.00;0.00;;;20.90;52.60;;;;;;5071725;28;20595;-57
2023/09/09 08:59:57;;;;;;;0.00;0.00;;;20.90;52.50;;;;;;5071695;28;20226;-57
2023/09/09 09:02:30;;;;;;;0.00;0.00;;;20.80;53.10;;;;;;5071794;28;20234;-56
2023/09/09 09:05:01;;;;;;;0.00;0.00;;;20.80;52.50;;;;;;5063699;28;20199;-56
2023/09/09 09:07:32;;;;;;;0.00;0.00;;;20.80;52.50;;;;;;5051603;28;20199;-57
2023/09/09 09:10:03;;;;;;;0.00;0.00;;;20.80;52.50;;;;;;5051077;28;20226;-57
2023/09/09 09:12:39;;;;;;;0.00;0.00;;;20.70;52.50;;;;;;5051317;28;20226;-57
2023/09/09 09:15:11;;;;;;;0.10;0.10;;;20.80;52.60;;;;;;5051412;28;20252;-57
2023/09/09 09:17:43;;;;;;;0.03;0.03;;;20.70;52.60;;;;;;5051283;28;20623;-57
2023/09/09 09:20:28;;;;;;;0.00;0.00;;;20.70;52.50;;;;;;5051455;28;20665;-55
2023/09/09 09:23:01;;;;;;;0.05;0.05;;;20.70;52.50;;;;;;5051092;28;20199;-56
2023/09/09 09:25:37;;;;;;;0.00;0.00;;;20.70;52.50;;;;;;5051324;28;20203;-57
2023/09/09 09:28:10;;;;;;;0.00;0.00;;;20.60;52.50;;;;;;5055488;28;20194;-57
2023/09/09 09:30:41;;;;;;;0.00;0.00;;;20.60;52.50;;;;;;5071255;28;20230;-57
2023/09/09 09:33:13;;;;;;;0.00;0.00;;;20.60;52.50;;;;;;5051303;28;20200;-57
2023/09/09 09:35:44;;;;;;;0.00;0.00;;;20.60;52.50;;;;;;5051434;28;20245;-57
2023/09/09 09:38:17;;;;;;;0.00;0.00;;;20.60;52.50;;;;;;5051104;28;20191;-57
2023/09/09 09:40:48;;;;;;;0.00;0.00;;;20.60;52.50;;;;;;5050711;28;20235;-57
2023/09/09 09:43:25;;;;;;;0.00;0.00;;;20.60;52.50;;;;;;5051270;28;20265;-57
2023/09/09 09:45:56;;;;;;;0.10;0.10;;;20.50;52.50;;;;;;5050258;28;20675;-56
2023/09/09 09:48:30;;;;;;;0.00;0.00;;;20.50;52.50;;;;;;5049739;28;20192;-57
2023/09/09 09:51:00;;;;;;;0.10;0.10;;;20.50;52.50;;;;;;5050421;28;20222;-57
2023/09/09 09:53:32;;;;;;;0.03;0.03;;;20.50;52.50;;;;;;5050456;28;20614;-56
2023/09/09 09:56:04;;;;;;;0.10;0.10;;;20.50;52.60;;;;;;5050928;28;20200;-57
2023/09/09 09:58:40;;;;;;;0.10;0.10;;;20.40;52.50;;;;;;5051532;28;20287;-57
2023/09/09 10:01:11;;;;;;;0.00;0.00;;;20.40;52.50;;;;;;5050530;28;20223;-56
2023/09/09 10:03:48;;;;;;;0.00;0.00;;;20.40;52.50;;;;;;5051211;28;20675;-56
2023/09/09 10:06:24;;;;;;;0.10;0.10;;;20.40;52.50;;;;;;5051607;28;20199;-56
2023/09/09 10:09:04;;;;;;;0.00;0.00;;;20.40;52.50;;;;;;5054771;28;20290;-53
2023/09/09 10:11:43;;;;;;;0.05;0.05;;;20.40;52.50;;;;;;5054910;28;20242;-57
2023/09/09 10:14:17;;;;;;;0.00;0.00;;;20.40;52.40;;;;;;5054770;28;20207;-55
2023/09/09 10:16:49;;;;;;;0.00;0.00;;;20.30;52.40;;;;;;5056809;28;20194;-57
2023/09/09 10:19:20;;;;;;;0.10;0.10;;;20.30;52.40;;;;;;5053466;28;20211;-54
2023/09/09 10:21:52;;;;;;;0.00;0.00;;;20.30;52.40;;;;;;5054501;28;20199;-54
2023/09/09 10:24:23;;;;;;;0.03;0.03;;;20.30;52.50;;;;;;5054210;28;20195;-54
2023/09/09 10:26:54;;;;;;;0.00;0.00;;;20.20;52.50;;;;;;5053931;28;20230;-57
2023/09/09 10:29:28;;;;;;;0.00;0.00;;;20.20;52.50;;;;;;5056653;28;20211;-56
2023/09/09 10:32:03;;;;;;;0.00;0.00;;;20.20;52.50;;;;;;5054476;28;20591;-57
2023/09/09 10:34:37;;;;;;;0.00;0.00;;;20.20;53.10;;;;;;5054462;28;20286;-56
2023/09/09 10:37:09;;;;;;;0.00;0.00;;;20.20;52.60;;;;;;5054305;28;20659;-56
2023/09/09 10:39:40;;;;;;;0.00;0.00;;;20.20;52.50;;;;;;5052701;28;20241;-56
2023/09/09 10:42:11;;;;;;;0.10;0.10;;;20.20;52.50;;;;;;5072270;28;20604;-56
2023/09/09 10:44:44;;;;;;;0.10;0.10;;;20.10;52.50;;;;;;5042572;28;20196;-57
2023/09/09 10:47:19;;;;;;;0.10;0.10;;;20.10;52.50;;;;;;5048656;28;20532;-56
2023/09/09 10:49:49;;;;;;;0.00;0.00;;;20.10;52.50;;;;;;5052748;28;20843;-57
2023/09/09 10:52:36;;;;;;;0.10;0.10;;;20.10;52.50;;;;;;5052789;28;20200;-54
2023/09/09 10:55:16;;;;;;;0.10;0.10;;;20.00;52.40;;;;;;5052948;28;20191;-57
2023/09/09 10:57:57;;;;;;;0.03;0.03;;;20.00;52.40;;;;;;5045898;28;20215;-57
2023/09/09 11:00:43;;;;;;;0.00;0.00;;;20.00;52.50;;;;;;5052852;28;20231;-56
2023/09/09 11:03:16;;;;;;;0.10;0.10;;;20.00;52.50;;;;;;5053488;28;20191;-57
2023/09/09 11:06:10;;;;;;;0.00;0.00;;;20.00;52.50;;;;;;5052894;28;20283;-56
2023/09/09 11:08:47;;;;;;;0.00;0.00;;;19.90;52.50;;;;;;5052938;28;20191;-56
2023/09/09 11:11:18;;;;;;;0.00;0.00;;;19.90;52.50;;;;;;5053459;28;20199;-57
2023/09/09 11:13:53;;;;;;;0.05;0.05;;;20.00;52.60;;;;;;5053195;28;20226;-56
2023/09/09 11:16:33;;;;;;;0.10;0.10;;;19.90;52.60;;;;;;5052714;28;20234;-57
2023/09/09 11:19:09;;;;;;;0.00;0.00;;;19.90;52.60;;;;;;5052999;28;20207;-54
2023/09/09 11:21:42;;;;;;;0.00;0.00;;;19.90;52.60;;;;;;5052430;28;20225;-55
2023/09/09 11:24:14;;;;;;;0.00;0.00;;;19.90;52.60;;;;;;5052914;28;20595;-57
2023/09/09 11:26:46;;;;;;;0.00;0.00;;;19.90;52.60;;;;;;5052452;28;20678;-57
2023/09/09 11:29:18;;;;;;;0.00;0.00;;;19.90;52.60;;;;;;5056624;28;20210;-56
2023/09/09 11:31:51;;;;;;;0.10;0.10;;;19.80;52.60;;;;;;5073485;28;20281;-57
2023/09/09 11:34:32;;;;;;;0.00;0.00;;;19.80;53.20;;;;;;5053359;28;20198;-56
2023/09/09 11:37:03;;;;;;;0.10;0.10;;;19.80;52.60;;;;;;5053189;28;20374;-57
2023/09/09 11:39:41;;;;;;;0.00;0.00;;;19.80;52.60;;;;;;5051889;28;20587;-57
2023/09/09 11:42:11;;;;;;;0.10;0.10;;;19.70;52.50;;;;;;5053762;28;20631;-57
2023/09/09 11:44:43;;;;;;;0.00;0.00;;;19.70;52.50;;;;;;5052328;28;20203;-57
2023/09/09 11:47:17;;;;;;;0.10;0.10;;;19.70;52.60;;;;;;5052569;28;20187;-56
2023/09/09 11:49:48;;;;;;;0.00;0.00;;;19.70;52.50;;;;;;5052242;28;20713;-57
2023/09/09 11:52:22;;;;;;;0.00;0.00;;;19.70;52.60;;;;;;5051743;28;20196;-57
2023/09/09 11:54:53;;;;;;;0.00;0.00;;;19.70;52.60;;;;;;5052353;28;20226;-56
2023/09/09 11:57:23;;;;;;;0.10;0.10;;;19.60;52.60;;;;;;5052851;28;20203;-56
2023/09/09 11:59:57;;;;;;;0.00;0.00;;;19.60;52.60;;;;;;5051398;28;20569;-57
2023/09/09 12:02:29;;;;;;;0.10;0.10;;;19.60;52.60;;;;;;5052236;28;20282;-56
2023/09/09 12:05:01;;;;;;;0.00;0.00;;;19.60;52.60;;;;;;5052053;28;20207;-57
2023/09/09 12:07:34;;;;;;;0.00;0.00;;;19.60;52.60;;;;;;5051863;28;20647;-57
2023/09/09 12:10:07;;;;;;;0.00;0.00;;;19.60;52.60;;;;;;5054217;28;20254;-57
2023/09/09 12:12:37;;;;;;;0.00;0.00;;;19.60;52.60;;;;;;5051687;28;20195;-57
2023/09/09 12:15:09;;;;;;;0.05;0.05;;;19.60;52.60;;;;;;5031999;28;20203;-55
2023/09/09 12:17:43;;;;;;;0.00;0.00;;;19.60;52.60;;;;;;5031492;28;20207;-57
2023/09/09 12:20:14;;;;;;;0.00;0.00;;;19.50;52.60;;;;;;5031989;28;20228;-56
2023/09/09 12:22:47;;;;;;;0.10;0.10;;;19.50;52.50;;;;;;5031566;28;20556;-57
2023/09/09 12:25:34;;;;;;;0.00;0.00;;;19.50;52.50;;;;;;5030811;28;20258;-56
2023/09/09 12:28:05;;;;;;;0.00;0.00;;;19.50;52.60;;;;;;5034458;28;20192;-57
2023/09/09 12:30:37;;;;;;;0.08;0.08;;;19.50;52.60;;;;;;5052299;28;20223;-57
2023/09/09 12:33:14;;;;;;;0.00;0.00;;;19.50;52.60;;;;;;5042316;28;20187;-56
2023/09/09 12:35:47;;;;;;;0.00;0.00;;;19.40;52.60;;;;;;5051554;28;20203;-57
2023/09/09 12:38:18;;;;;;;0.08;0.08;;;19.40;52.60;;;;;;5051649;28;20196;-57
2023/09/09 12:40:49;;;;;;;0.00;0.00;;;19.40;52.60;;;;;;5051105;28;20234;-54
2023/09/09 12:43:23;;;;;;;0.00;0.00;;;19.40;52.60;;;;;;5052138;28;20222;-57
2023/09/09 12:45:55;;;;;;;0.03;0.03;;;19.40;52.70;;;;;;5051187;28;20199;-54
2023/09/09 12:48:27;;;;;;;0.00;0.00;;;19.40;52.60;;;;;;5051021;28;20188;-58
2023/09/09 12:50:58;;;;;;;0.10;0.10;;;19.40;52.60;;;;;;5051074;28;20227;-57
2023/09/09 12:53:29;;;;;;;0.10;0.10;;;19.40;52.60;;;;;;5050116;28;20202;-57
2023/09/09 12:55:59;;;;;;;0.10;0.10;;;19.30;52.60;;;;;;5051602;28;20191;-58
2023/09/09 12:58:30;;;;;;;0.10;0.10;;;19.30;52.60;;;;;;5051096;28;20187;-55
2023/09/09 13:01:01;;;;;;;0.10;0.10;;;19.30;52.50;;;;;;5050572;28;20223;-57
2023/09/09 13:03:34;;;;;;;0.00;0.00;;;19.30;52.60;;;;;;5051542;28;20191;-59
2023/09/09 13:06:04;;;;;;;0.00;0.00;;;19.30;52.60;;;;;;5048960;28;20218;-59
2023/09/09 13:08:35;;;;;;;0.00;0.00;;;19.30;52.60;;;;;;5051116;28;20643;-59
2023/09/09 13:11:06;;;;;;;0.00;0.00;;;19.20;52.60;;;;;;5048768;28;20249;-58
2023/09/09 13:13:39;;;;;;;0.10;0.10;;;19.20;52.60;;;;;;5051335;28;20195;-58